createdAt,value
2022-08-17T02:37:22.316Z,100339.97
2022-08-17T02:42:29.865Z,100353.44
2022-08-17T02:47:33.440Z,100348.00
2022-08-17T02:52:57.309Z,100355.50
2022-08-17T02:58:04.630Z,100360.19
2022-08-17T03:03:09.519Z,100365.22
2022-08-17T03:19:42.244Z,100386.03
2022-08-17T03:24:46.760Z,100400.09
2022-08-17T03:29:51.468Z,100393.63
2022-08-17T03:35:00.943Z,100405.06
2022-08-17T03:40:07.237Z,100411.47
2022-08-17T03:45:15.585Z,100416.09
2022-08-17T03:50:21.324Z,100419.47
2022-08-17T03:55:35.780Z,100422.88
2022-08-17T04:00:40.135Z,100426.88
2022-08-17T04:05:45.561Z,100432.34
2022-08-17T04:39:46.355Z,100477.69
2022-08-17T04:44:49.996Z,100470.31
2022-08-17T04:49:53.589Z,100472.59
2022-08-17T04:54:58.804Z,100479.22
2022-08-17T05:00:02.603Z,100487.81
2022-08-17T05:05:07.508Z,100488.97
2022-08-17T05:10:12.971Z,100484.41
2022-08-17T05:15:16.624Z,100494.88
2022-08-17T05:20:20.247Z,100488.22
2022-08-17T05:25:28.717Z,100485.41
2022-08-17T05:30:35.772Z,100492.41
2022-08-17T05:35:42.334Z,100500.47
2022-08-17T05:40:48.463Z,100502.78
2022-08-17T05:46:01.134Z,100513.19
2022-08-17T05:51:22.664Z,100520.25
2022-08-17T05:56:47.833Z,100529.34
2022-08-17T06:02:05.403Z,100536.16
2022-08-17T06:07:15.687Z,100532.50
2022-08-17T06:12:38.966Z,100539.38
2022-08-17T06:17:44.019Z,100539.28
2022-08-17T06:22:50.351Z,100536.63
2022-08-17T06:28:00.017Z,100533.25
2022-08-17T06:33:08.308Z,100549.19
2022-08-17T06:38:38.518Z,100546.69
2022-08-17T06:43:56.171Z,100541.31
2022-08-17T06:49:12.097Z,100541.59
2022-08-17T06:54:21.110Z,100542.22
2022-08-17T06:59:54.477Z,100539.41
2022-08-17T07:04:55.954Z,100524.28
2022-08-17T07:10:01.905Z,100519.69
2022-08-17T07:15:13.933Z,100516.75
2022-08-17T07:20:20.096Z,100525.56
2022-08-17T07:25:23.760Z,100519.50
2022-08-17T07:30:31.864Z,100522.25
2022-08-17T07:35:49.415Z,100530.38
2022-08-17T07:41:02.670Z,100524.25
2022-08-17T07:46:17.831Z,100529.91
2022-08-17T07:51:25.514Z,100530.94
2022-08-17T07:56:39.663Z,100535.47
2022-08-17T08:01:47.853Z,100544.66
2022-08-17T08:07:02.029Z,100555.94
2022-08-17T08:12:32.720Z,100557.16
2022-08-17T08:17:50.509Z,100554.97
2022-08-17T08:23:03.686Z,100549.66
2022-08-17T08:28:18.911Z,100544.38
2022-08-17T08:33:42.881Z,100544.50
2022-08-17T08:38:52.951Z,100565.50
2022-08-17T08:44:07.174Z,100564.53
2022-08-17T08:50:02.572Z,100569.19
2022-08-17T08:55:11.298Z,100567.22
2022-08-17T09:00:17.438Z,100564.75
2022-08-17T09:05:33.545Z,100569.97
2022-08-17T09:10:54.197Z,100579.94
2022-08-17T09:16:03.645Z,100580.88
2022-08-17T09:21:15.113Z,100590.41
2022-08-17T09:26:28.888Z,100593.31
2022-08-17T09:31:34.487Z,100608.63
2022-08-17T09:37:05.098Z,100622.22
2022-08-17T09:42:15.479Z,100622.13
2022-08-17T09:47:27.031Z,100627.81
2022-08-17T09:52:32.847Z,100621.28
2022-08-17T09:57:56.108Z,100623.84
2022-08-17T10:03:24.200Z,100621.44
2022-08-17T10:08:40.021Z,100613.25
2022-08-17T10:13:53.540Z,100622.59
2022-08-17T10:19:14.772Z,100618.72
2022-08-17T10:24:23.965Z,100616.31
2022-08-17T10:29:48.505Z,100617.25
2022-08-17T10:35:25.564Z,100617.00
2022-08-17T10:40:45.355Z,100615.59
2022-08-17T10:46:10.544Z,100619.44
2022-08-17T10:51:38.259Z,100618.88
2022-08-17T10:56:49.560Z,100620.59
2022-08-17T11:02:09.975Z,100616.13
2022-08-17T11:07:26.638Z,100615.28
2022-08-17T11:12:46.153Z,100609.41
2022-08-17T11:18:19.299Z,100615.91
2022-08-17T11:23:54.359Z,100637.25
2022-08-17T11:29:04.600Z,100650.53
2022-08-17T11:34:18.153Z,100650.88
2022-08-17T11:39:54.372Z,100650.72
2022-08-17T11:45:04.269Z,100653.19
2022-08-17T11:50:37.223Z,100656.16
2022-08-17T11:56:05.707Z,100665.78
2022-08-17T12:01:13.610Z,100667.69
2022-08-17T12:06:49.195Z,100666.84
2022-08-17T12:12:13.305Z,100677.22
2022-08-17T12:17:40.467Z,100663.97
2022-08-17T12:22:55.541Z,100665.91
2022-08-17T12:28:06.825Z,100688.66
2022-08-17T12:33:25.236Z,100698.41
2022-08-17T12:38:33.640Z,100736.19
2022-08-17T12:43:37.330Z,100742.00
2022-08-17T12:48:59.842Z,100739.69
2022-08-17T12:54:04.047Z,100752.81
2022-08-17T12:59:07.675Z,100751.97
2022-08-17T13:04:14.884Z,100713.72
2022-08-17T13:09:23.433Z,100684.66
2022-08-17T13:14:45.841Z,100683.28
2022-08-17T13:19:51.990Z,100691.28
2022-08-17T13:24:57.494Z,100699.59
2022-08-17T13:30:04.735Z,100698.94
2022-08-17T13:35:41.815Z,100840.25
2022-08-17T13:40:51.194Z,100740.09
2022-08-17T13:46:07.739Z,100723.66
2022-08-17T13:51:35.738Z,100759.72
2022-08-17T13:56:54.977Z,100795.19
2022-08-17T14:01:58.611Z,100830.84
2022-08-17T14:07:27.044Z,100816.94
2022-08-17T14:12:33.898Z,100795.72
2022-08-17T14:17:39.101Z,100802.78
2022-08-17T14:22:48.930Z,100818.66
2022-08-17T14:27:54.069Z,100771.06
2022-08-17T14:33:00.884Z,100781.56
2022-08-17T14:38:06.094Z,100779.44
2022-08-17T14:43:09.660Z,100782.50
2022-08-17T14:48:13.454Z,100810.34
2022-08-17T14:53:19.501Z,100792.59
2022-08-17T14:58:23.076Z,100809.84
2022-08-17T15:03:26.663Z,100798.69
2022-08-17T15:08:32.184Z,100803.72
2022-08-17T15:13:35.917Z,100814.47
2022-08-17T15:18:56.197Z,100786.81
2022-08-17T15:24:01.397Z,100796.50
2022-08-17T15:29:05.153Z,100827.03
2022-08-17T15:34:08.781Z,100826.97
2022-08-17T15:39:14.423Z,100821.78
2022-08-17T15:44:23.197Z,100827.84
2022-08-17T15:49:39.560Z,100821.78
2022-08-17T15:54:49.538Z,100822.59
2022-08-17T15:59:54.667Z,100806.44
2022-08-17T16:05:10.141Z,100823.06
2022-08-17T16:10:19.029Z,100820.59
2022-08-17T16:15:22.769Z,100828.09
2022-08-17T16:20:26.599Z,100840.59
2022-08-17T16:25:52.300Z,100823.91
2022-08-17T16:30:56.976Z,100821.88
2022-08-17T16:36:00.671Z,100809.88
2022-08-17T16:41:06.946Z,100806.84
2022-08-17T16:46:10.526Z,100800.91
2022-08-17T16:51:14.084Z,100812.81
2022-08-17T16:56:19.347Z,100818.16
2022-08-17T17:01:23.269Z,100817.31
2022-08-17T17:06:38.437Z,100821.91
2022-08-17T17:11:45.581Z,100843.66
2022-08-17T17:16:56.572Z,100827.19
2022-08-17T17:22:06.010Z,100816.97
2022-08-17T17:27:22.144Z,100783.00
2022-08-17T17:32:34.414Z,100897.09
2022-08-17T17:37:40.961Z,100845.56
2022-08-17T17:42:47.406Z,100856.34
2022-08-17T17:47:51.466Z,100853.06
2022-08-17T17:53:01.096Z,100891.94
2022-08-17T17:58:16.411Z,100859.34
2022-08-17T18:03:33.019Z,100868.53
2022-08-17T18:08:55.462Z,100881.41
2022-08-17T18:14:15.324Z,100852.50
2022-08-17T18:19:20.228Z,100855.66
2022-08-17T18:24:31.857Z,100849.28
2022-08-17T18:29:43.499Z,100838.31
2022-08-17T18:34:49.069Z,100825.16
2022-08-17T18:39:52.765Z,100842.88
2022-08-17T18:44:57.995Z,100838.25
2022-08-17T18:50:21.996Z,100843.47
2022-08-17T18:55:28.303Z,100858.47
2022-08-17T19:00:38.490Z,100846.69
2022-08-17T19:05:44.429Z,100861.88
2022-08-17T19:10:49.467Z,100839.00
2022-08-17T19:16:11.559Z,100810.44
2022-08-17T19:21:22.349Z,100814.59
2022-08-17T19:26:53.258Z,100843.97
2022-08-17T19:31:56.693Z,100841.59
2022-08-17T19:37:03.262Z,100809.28
2022-08-17T19:42:13.615Z,100868.28
2022-08-17T19:47:43.811Z,100855.44
2022-08-17T19:52:55.710Z,100868.22
2022-08-17T19:58:07.548Z,100846.94
2022-08-17T20:03:18.681Z,100856.06
2022-08-17T20:08:27.295Z,100887.53
2022-08-17T20:13:37.549Z,100901.25
2022-08-17T20:18:50.324Z,100871.50
2022-08-17T20:24:00.366Z,100825.13
2022-08-17T20:29:36.847Z,100828.19
2022-08-17T20:34:47.991Z,100825.06
2022-08-17T20:40:20.377Z,100813.56
2022-08-17T20:45:59.218Z,100809.19
2022-08-17T20:51:18.741Z,100810.72
2022-08-17T20:56:54.976Z,100816.31
2022-08-17T21:02:19.122Z,100824.41
2022-08-17T21:07:28.128Z,100812.41
2022-08-17T21:12:46.468Z,100807.84
2022-08-17T21:17:57.860Z,100810.28
2022-08-17T21:23:31.211Z,100817.69
2022-08-17T21:29:00.474Z,100825.66
2022-08-17T21:34:29.272Z,100828.97
2022-08-17T21:39:41.550Z,100822.16
2022-08-17T21:44:49.485Z,100815.41
2022-08-17T21:49:54.020Z,100810.41
2022-08-17T21:55:01.467Z,100805.31
2022-08-17T22:00:08.614Z,100794.03
2022-08-17T22:05:14.397Z,100761.16
2022-08-17T22:10:32.965Z,100770.91
2022-08-17T22:15:39.995Z,100768.47
2022-08-17T22:20:44.728Z,100784.44
2022-08-17T22:26:09.595Z,100803.88
2022-08-17T22:31:20.807Z,100795.19
2022-08-17T22:36:31.195Z,100797.16
2022-08-17T22:41:52.545Z,100768.34
2022-08-17T22:47:01.296Z,100761.94
2022-08-17T22:52:12.683Z,100759.88
2022-08-17T22:57:19.133Z,100748.06
2022-08-17T23:02:25.858Z,100745.91
2022-08-17T23:07:29.569Z,100757.47
2022-08-17T23:12:35.176Z,100747.25
2022-08-17T23:17:39.252Z,100751.50
2022-08-17T23:22:52.397Z,100754.06
2022-08-17T23:27:59.520Z,100755.66
2022-08-17T23:33:06.756Z,100745.13
2022-08-17T23:38:11.308Z,100731.69
2022-08-17T23:43:25.726Z,100729.44
2022-08-17T23:48:35.134Z,100728.19
2022-08-17T23:53:43.744Z,100735.84
2022-08-17T23:58:49.046Z,100729.22
